sensor_id;sensor_type;location;lat;lon;timestamp;P1;durP1;ratioP1;P2;durP2;ratioP2
2750;SDS011;1383;48.362;10.908;2022-11-20T00:00:53;5.10;;;4.60;;
2750;SDS011;1383;48.362;10.908;2022-11-20T00:03:20;5.28;;;4.28;;
2750;SDS011;1383;48.362;10.908;2022-11-20T00:05:47;5.38;;;4.65;;
2750;SDS011;1383;48.362;10.908;2022-11-20T00:08:14;4.68;;;3.80;;
2750;SDS011;1383;48.362;10.908;2022-11-20T00:10:40;6.88;;;4.82;;
2750;SDS011;1383;48.362;10.908;2022-11-20T00:13:07;6.18;;;4.38;;
2750;SDS011;1383;48.362;10.908;2022-11-20T00:15:34;5.25;;;4.55;;
2750;SDS011;1383;48.362;10.908;2022-11-20T00:18:01;5.75;;;4.90;;
2750;SDS011;1383;48.362;10.908;2022-11-20T00:20:28;5.43;;;4.68;;
2750;SDS011;1383;48.362;10.908;2022-11-20T00:22:54;5.78;;;4.50;;
2750;SDS011;1383;48.362;10.908;2022-11-20T00:25:21;5.18;;;4.50;;
2750;SDS011;1383;48.362;10.908;2022-11-20T00:27:48;8.05;;;5.18;;
2750;SDS011;1383;48.362;10.908;2022-11-20T00:30:15;5.30;;;4.80;;
2750;SDS011;1383;48.362;10.908;2022-11-20T00:32:41;5.35;;;4.60;;
2750;SDS011;1383;48.362;10.908;2022-11-20T00:35:08;5.18;;;4.68;;
2750;SDS011;1383;48.362;10.908;2022-11-20T00:37:35;6.03;;;5.32;;
2750;SDS011;1383;48.362;10.908;2022-11-20T00:40:02;5.20;;;4.55;;
2750;SDS011;1383;48.362;10.908;2022-11-20T00:42:29;4.72;;;4.20;;
2750;SDS011;1383;48.362;10.908;2022-11-20T00:44:57;6.15;;;4.55;;
2750;SDS011;1383;48.362;10.908;2022-11-20T00:47:23;7.55;;;4.55;;
2750;SDS011;1383;48.362;10.908;2022-11-20T00:49:50;5.53;;;3.83;;
2750;SDS011;1383;48.362;10.908;2022-11-20T00:52:17;8.45;;;7.60;;
2750;SDS011;1383;48.362;10.908;2022-11-20T00:54:44;5.30;;;4.20;;
2750;SDS011;1383;48.362;10.908;2022-11-20T00:57:11;6.78;;;4.40;;
2750;SDS011;1383;48.362;10.908;2022-11-20T00:59:37;4.45;;;3.70;;
2750;SDS011;1383;48.362;10.908;2022-11-20T01:02:04;5.40;;;4.90;;
2750;SDS011;1383;48.362;10.908;2022-11-20T01:04:31;6.70;;;5.22;;
2750;SDS011;1383;48.362;10.908;2022-11-20T01:06:58;4.88;;;4.32;;
2750;SDS011;1383;48.362;10.908;2022-11-20T01:09:24;4.95;;;3.97;;
2750;SDS011;1383;48.362;10.908;2022-11-20T01:11:51;4.10;;;3.80;;
2750;SDS011;1383;48.362;10.908;2022-11-20T01:14:19;4.43;;;4.03;;
2750;SDS011;1383;48.362;10.908;2022-11-20T01:16:46;6.75;;;4.95;;
2750;SDS011;1383;48.362;10.908;2022-11-20T01:19:19;5.13;;;4.45;;
2750;SDS011;1383;48.362;10.908;2022-11-20T01:21:48;7.73;;;5.10;;
2750;SDS011;1383;48.362;10.908;2022-11-20T01:24:18;4.90;;;4.40;;
2750;SDS011;1383;48.362;10.908;2022-11-20T01:26:47;4.20;;;3.80;;
2750;SDS011;1383;48.362;10.908;2022-11-20T01:29:17;5.70;;;4.18;;
2750;SDS011;1383;48.362;10.908;2022-11-20T01:31:46;5.10;;;4.32;;
2750;SDS011;1383;48.362;10.908;2022-11-20T01:34:14;4.45;;;4.15;;
2750;SDS011;1383;48.362;10.908;2022-11-20T01:36:43;4.05;;;3.65;;
2750;SDS011;1383;48.362;10.908;2022-11-20T01:39:16;6.25;;;5.65;;
2750;SDS011;1383;48.362;10.908;2022-11-20T01:41:45;5.22;;;4.65;;
2750;SDS011;1383;48.362;10.908;2022-11-20T01:47:39;5.28;;;4.32;;
2750;SDS011;1383;48.362;10.908;2022-11-20T01:52:44;5.25;;;3.95;;
2750;SDS011;1383;48.362;10.908;2022-11-20T01:55:19;4.95;;;4.05;;
2750;SDS011;1383;48.362;10.908;2022-11-20T01:57:51;6.75;;;4.15;;
2750;SDS011;1383;48.362;10.908;2022-11-20T02:00:19;5.38;;;4.65;;
2750;SDS011;1383;48.362;10.908;2022-11-20T02:02:51;5.82;;;5.25;;
2750;SDS011;1383;48.362;10.908;2022-11-20T02:07:57;5.80;;;4.07;;
2750;SDS011;1383;48.362;10.908;2022-11-20T02:10:25;6.20;;;4.53;;
2750;SDS011;1383;48.362;10.908;2022-11-20T02:12:53;6.03;;;4.55;;
2750;SDS011;1383;48.362;10.908;2022-11-20T02:15:39;6.28;;;4.57;;
2750;SDS011;1383;48.362;10.908;2022-11-20T02:18:06;6.30;;;4.35;;
2750;SDS011;1383;48.362;10.908;2022-11-20T02:20:35;6.00;;;5.50;;
2750;SDS011;1383;48.362;10.908;2022-11-20T02:25:33;5.68;;;4.15;;
2750;SDS011;1383;48.362;10.908;2022-11-20T02:28:02;6.82;;;4.55;;
2750;SDS011;1383;48.362;10.908;2022-11-20T02:30:31;5.05;;;4.00;;
2750;SDS011;1383;48.362;10.908;2022-11-20T02:32:57;4.50;;;3.90;;
2750;SDS011;1383;48.362;10.908;2022-11-20T02:37:53;5.32;;;4.75;;
2750;SDS011;1383;48.362;10.908;2022-11-20T02:40:22;5.43;;;4.35;;
2750;SDS011;1383;48.362;10.908;2022-11-20T02:42:52;6.70;;;5.15;;
2750;SDS011;1383;48.362;10.908;2022-11-20T02:45:19;7.90;;;5.05;;
2750;SDS011;1383;48.362;10.908;2022-11-20T02:47:46;5.32;;;4.50;;
2750;SDS011;1383;48.362;10.908;2022-11-20T02:50:13;5.75;;;4.13;;
2750;SDS011;1383;48.362;10.908;2022-11-20T02:52:40;5.18;;;4.68;;
2750;SDS011;1383;48.362;10.908;2022-11-20T02:55:07;5.22;;;4.68;;
2750;SDS011;1383;48.362;10.908;2022-11-20T02:57:41;5.38;;;4.80;;
2750;SDS011;1383;48.362;10.908;2022-11-20T03:00:08;4.60;;;4.20;;
2750;SDS011;1383;48.362;10.908;2022-11-20T03:02:35;5.82;;;5.15;;
2750;SDS011;1383;48.362;10.908;2022-11-20T03:05:02;5.78;;;4.25;;
2750;SDS011;1383;48.362;10.908;2022-11-20T03:07:29;7.00;;;4.57;;
2750;SDS011;1383;48.362;10.908;2022-11-20T03:09:56;4.47;;;3.83;;
2750;SDS011;1383;48.362;10.908;2022-11-20T03:12:22;4.70;;;4.25;;
2750;SDS011;1383;48.362;10.908;2022-11-20T03:14:49;5.10;;;4.60;;
2750;SDS011;1383;48.362;10.908;2022-11-20T03:17:18;4.20;;;3.90;;
2750;SDS011;1383;48.362;10.908;2022-11-20T03:19:45;6.35;;;4.72;;
2750;SDS011;1383;48.362;10.908;2022-11-20T03:22:12;5.30;;;4.68;;
2750;SDS011;1383;48.362;10.908;2022-11-20T03:24:39;4.50;;;4.10;;
2750;SDS011;1383;48.362;10.908;2022-11-20T03:27:06;5.10;;;4.45;;
2750;SDS011;1383;48.362;10.908;2022-11-20T03:29:33;7.60;;;3.75;;
2750;SDS011;1383;48.362;10.908;2022-11-20T03:32:01;6.07;;;3.95;;
2750;SDS011;1383;48.362;10.908;2022-11-20T03:34:28;4.95;;;4.45;;
2750;SDS011;1383;48.362;10.908;2022-11-20T03:36:55;4.80;;;4.30;;
2750;SDS011;1383;48.362;10.908;2022-11-20T03:39:21;5.47;;;4.00;;
2750;SDS011;1383;48.362;10.908;2022-11-20T03:41:49;4.68;;;4.28;;
2750;SDS011;1383;48.362;10.908;2022-11-20T03:44:16;3.83;;;3.47;;
2750;SDS011;1383;48.362;10.908;2022-11-20T03:46:42;7.20;;;3.90;;
2750;SDS011;1383;48.362;10.908;2022-11-20T03:49:09;4.60;;;4.20;;
2750;SDS011;1383;48.362;10.908;2022-11-20T03:51:36;4.22;;;3.83;;
2750;SDS011;1383;48.362;10.908;2022-11-20T03:54:04;5.15;;;4.30;;
2750;SDS011;1383;48.362;10.908;2022-11-20T03:56:33;4.30;;;3.40;;
2750;SDS011;1383;48.362;10.908;2022-11-20T03:59:02;4.13;;;3.83;;
2750;SDS011;1383;48.362;10.908;2022-11-20T04:01:33;4.10;;;3.55;;
2750;SDS011;1383;48.362;10.908;2022-11-20T04:04:02;4.05;;;3.65;;
2750;SDS011;1383;48.362;10.908;2022-11-20T04:06:30;5.35;;;4.07;;
2750;SDS011;1383;48.362;10.908;2022-11-20T04:09:00;4.55;;;4.07;;
2750;SDS011;1383;48.362;10.908;2022-11-20T04:11:28;5.15;;;3.70;;
2750;SDS011;1383;48.362;10.908;2022-11-20T04:14:00;4.40;;;3.92;;
2750;SDS011;1383;48.362;10.908;2022-11-20T04:16:30;4.65;;;3.70;;
2750;SDS011;1383;48.362;10.908;2022-11-20T04:18:59;5.78;;;4.13;;
2750;SDS011;1383;48.362;10.908;2022-11-20T04:21:27;4.20;;;3.63;;
2750;SDS011;1383;48.362;10.908;2022-11-20T04:23:54;4.53;;;4.18;;
2750;SDS011;1383;48.362;10.908;2022-11-20T04:26:22;4.47;;;4.03;;
2750;SDS011;1383;48.362;10.908;2022-11-20T04:28:50;7.72;;;3.80;;
2750;SDS011;1383;48.362;10.908;2022-11-20T04:31:18;4.50;;;3.65;;
2750;SDS011;1383;48.362;10.908;2022-11-20T04:33:47;4.60;;;4.10;;
2750;SDS011;1383;48.362;10.908;2022-11-20T04:36:15;4.53;;;3.40;;
2750;SDS011;1383;48.362;10.908;2022-11-20T04:38:50;4.65;;;4.07;;
2750;SDS011;1383;48.362;10.908;2022-11-20T04:41:23;4.63;;;3.83;;
2750;SDS011;1383;48.362;10.908;2022-11-20T04:43:52;3.80;;;3.45;;
2750;SDS011;1383;48.362;10.908;2022-11-20T04:46:26;4.10;;;3.70;;
2750;SDS011;1383;48.362;10.908;2022-11-20T04:48:53;3.38;;;3.10;;
2750;SDS011;1383;48.362;10.908;2022-11-20T04:51:20;4.65;;;3.50;;
2750;SDS011;1383;48.362;10.908;2022-11-20T04:53:47;3.65;;;3.17;;
2750;SDS011;1383;48.362;10.908;2022-11-20T04:56:14;6.32;;;5.70;;
2750;SDS011;1383;48.362;10.908;2022-11-20T04:58:41;4.85;;;4.38;;
2750;SDS011;1383;48.362;10.908;2022-11-20T05:01:12;3.67;;;3.33;;
2750;SDS011;1383;48.362;10.908;2022-11-20T05:03:44;4.30;;;3.90;;
2750;SDS011;1383;48.362;10.908;2022-11-20T05:06:12;4.70;;;3.40;;
2750;SDS011;1383;48.362;10.908;2022-11-20T05:08:42;4.05;;;3.63;;
2750;SDS011;1383;48.362;10.908;2022-11-20T05:11:10;3.55;;;3.17;;
2750;SDS011;1383;48.362;10.908;2022-11-20T05:13:38;3.92;;;3.50;;
2750;SDS011;1383;48.362;10.908;2022-11-20T05:16:13;4.55;;;3.30;;
2750;SDS011;1383;48.362;10.908;2022-11-20T05:18:41;4.20;;;3.40;;
2750;SDS011;1383;48.362;10.908;2022-11-20T05:21:09;4.63;;;4.22;;
2750;SDS011;1383;48.362;10.908;2022-11-20T05:23:36;4.22;;;3.92;;
2750;SDS011;1383;48.362;10.908;2022-11-20T05:26:03;6.07;;;3.22;;
2750;SDS011;1383;48.362;10.908;2022-11-20T05:28:31;4.20;;;3.80;;
2750;SDS011;1383;48.362;10.908;2022-11-20T05:31:09;3.63;;;3.33;;
2750;SDS011;1383;48.362;10.908;2022-11-20T05:33:41;3.50;;;3.20;;
2750;SDS011;1383;48.362;10.908;2022-11-20T05:36:10;6.22;;;3.20;;
2750;SDS011;1383;48.362;10.908;2022-11-20T05:38:38;8.63;;;3.53;;
2750;SDS011;1383;48.362;10.908;2022-11-20T05:41:15;2.88;;;2.67;;
2750;SDS011;1383;48.362;10.908;2022-11-20T05:43:45;5.82;;;4.95;;
2750;SDS011;1383;48.362;10.908;2022-11-20T05:46:14;4.28;;;3.88;;
2750;SDS011;1383;48.362;10.908;2022-11-20T05:48:42;4.50;;;3.85;;
2750;SDS011;1383;48.362;10.908;2022-11-20T05:51:10;3.65;;;3.35;;
2750;SDS011;1383;48.362;10.908;2022-11-20T05:53:39;3.20;;;2.97;;
2750;SDS011;1383;48.362;10.908;2022-11-20T05:56:14;3.72;;;3.42;;
2750;SDS011;1383;48.362;10.908;2022-11-20T05:58:43;3.50;;;3.20;;
2750;SDS011;1383;48.362;10.908;2022-11-20T06:01:20;5.93;;;3.60;;
2750;SDS011;1383;48.362;10.908;2022-11-20T06:03:48;3.42;;;3.15;;
2750;SDS011;1383;48.362;10.908;2022-11-20T06:06:17;3.50;;;3.30;;
2750;SDS011;1383;48.362;10.908;2022-11-20T06:08:45;2.97;;;2.77;;
2750;SDS011;1383;48.362;10.908;2022-11-20T06:11:12;3.10;;;2.80;;
2750;SDS011;1383;48.362;10.908;2022-11-20T06:13:41;3.17;;;2.87;;
2750;SDS011;1383;48.362;10.908;2022-11-20T06:16:09;3.27;;;2.97;;
2750;SDS011;1383;48.362;10.908;2022-11-20T06:18:37;3.58;;;3.10;;
2750;SDS011;1383;48.362;10.908;2022-11-20T06:23:33;2.72;;;2.53;;
2750;SDS011;1383;48.362;10.908;2022-11-20T06:26:01;3.00;;;2.80;;
2750;SDS011;1383;48.362;10.908;2022-11-20T06:28:32;3.30;;;2.63;;
2750;SDS011;1383;48.362;10.908;2022-11-20T06:31:00;3.70;;;3.40;;
2750;SDS011;1383;48.362;10.908;2022-11-20T06:33:27;7.32;;;5.40;;
2750;SDS011;1383;48.362;10.908;2022-11-20T06:35:57;4.50;;;4.10;;
2750;SDS011;1383;48.362;10.908;2022-11-20T06:38:34;3.33;;;3.03;;
2750;SDS011;1383;48.362;10.908;2022-11-20T06:41:01;3.10;;;2.70;;
2750;SDS011;1383;48.362;10.908;2022-11-20T06:43:29;4.00;;;3.60;;
2750;SDS011;1383;48.362;10.908;2022-11-20T06:45:56;3.45;;;2.90;;
2750;SDS011;1383;48.362;10.908;2022-11-20T06:48:25;5.33;;;4.03;;
2750;SDS011;1383;48.362;10.908;2022-11-20T06:50:53;6.88;;;3.58;;
2750;SDS011;1383;48.362;10.908;2022-11-20T06:53:20;3.30;;;3.07;;
2750;SDS011;1383;48.362;10.908;2022-11-20T06:55:47;4.68;;;3.22;;
2750;SDS011;1383;48.362;10.908;2022-11-20T06:58:16;3.93;;;3.17;;
2750;SDS011;1383;48.362;10.908;2022-11-20T07:00:44;6.72;;;3.50;;
2750;SDS011;1383;48.362;10.908;2022-11-20T07:03:11;3.25;;;2.90;;
2750;SDS011;1383;48.362;10.908;2022-11-20T07:05:39;3.40;;;2.83;;
2750;SDS011;1383;48.362;10.908;2022-11-20T07:08:06;2.78;;;2.58;;
2750;SDS011;1383;48.362;10.908;2022-11-20T07:10:33;3.22;;;2.92;;
2750;SDS011;1383;48.362;10.908;2022-11-20T07:13:01;2.97;;;2.67;;
2750;SDS011;1383;48.362;10.908;2022-11-20T07:15:27;3.58;;;3.28;;
2750;SDS011;1383;48.362;10.908;2022-11-20T07:17:54;3.78;;;3.42;;
2750;SDS011;1383;48.362;10.908;2022-11-20T07:20:24;3.17;;;2.53;;
2750;SDS011;1383;48.362;10.908;2022-11-20T07:22:54;4.85;;;3.60;;
2750;SDS011;1383;48.362;10.908;2022-11-20T07:25:22;3.35;;;3.00;;
2750;SDS011;1383;48.362;10.908;2022-11-20T07:27:50;4.33;;;2.83;;
2750;SDS011;1383;48.362;10.908;2022-11-20T07:30:17;4.50;;;2.97;;
2750;SDS011;1383;48.362;10.908;2022-11-20T07:32:50;3.05;;;2.40;;
2750;SDS011;1383;48.362;10.908;2022-11-20T07:35:17;3.00;;;2.80;;
2750;SDS011;1383;48.362;10.908;2022-11-20T07:37:45;3.15;;;2.85;;
2750;SDS011;1383;48.362;10.908;2022-11-20T07:40:12;3.40;;;3.17;;
2750;SDS011;1383;48.362;10.908;2022-11-20T07:42:46;10.30;;;8.10;;
2750;SDS011;1383;48.362;10.908;2022-11-20T07:45:17;4.60;;;4.20;;
2750;SDS011;1383;48.362;10.908;2022-11-20T07:47:45;7.60;;;5.07;;
2750;SDS011;1383;48.362;10.908;2022-11-20T07:50:12;5.70;;;3.17;;
2750;SDS011;1383;48.362;10.908;2022-11-20T07:52:39;3.27;;;2.97;;
2750;SDS011;1383;48.362;10.908;2022-11-20T07:55:07;3.67;;;3.38;;
2750;SDS011;1383;48.362;10.908;2022-11-20T07:57:35;6.40;;;2.93;;
2750;SDS011;1383;48.362;10.908;2022-11-20T08:00:02;2.85;;;2.65;;
2750;SDS011;1383;48.362;10.908;2022-11-20T08:02:31;3.50;;;3.00;;
2750;SDS011;1383;48.362;10.908;2022-11-20T08:04:57;3.50;;;3.20;;
2750;SDS011;1383;48.362;10.908;2022-11-20T08:07:24;6.70;;;3.00;;
2750;SDS011;1383;48.362;10.908;2022-11-20T08:09:51;2.53;;;2.07;;
2750;SDS011;1383;48.362;10.908;2022-11-20T08:12:19;2.70;;;2.40;;
2750;SDS011;1383;48.362;10.908;2022-11-20T08:15:05;3.43;;;2.63;;
2750;SDS011;1383;48.362;10.908;2022-11-20T08:17:38;3.93;;;2.67;;
2750;SDS011;1383;48.362;10.908;2022-11-20T08:20:05;5.93;;;3.10;;
2750;SDS011;1383;48.362;10.908;2022-11-20T08:22:32;3.27;;;2.70;;
2750;SDS011;1383;48.362;10.908;2022-11-20T08:24:59;3.40;;;3.10;;
2750;SDS011;1383;48.362;10.908;2022-11-20T08:27:25;2.83;;;2.63;;
2750;SDS011;1383;48.362;10.908;2022-11-20T08:29:52;5.27;;;3.07;;
2750;SDS011;1383;48.362;10.908;2022-11-20T08:32:19;2.93;;;2.63;;
2750;SDS011;1383;48.362;10.908;2022-11-20T08:34:46;4.45;;;3.20;;
2750;SDS011;1383;48.362;10.908;2022-11-20T08:37:13;3.17;;;2.75;;
2750;SDS011;1383;48.362;10.908;2022-11-20T08:39:40;3.38;;;3.08;;
2750;SDS011;1383;48.362;10.908;2022-11-20T08:42:07;3.40;;;3.10;;
2750;SDS011;1383;48.362;10.908;2022-11-20T08:44:34;3.17;;;2.87;;
2750;SDS011;1383;48.362;10.908;2022-11-20T08:47:01;3.53;;;3.00;;
2750;SDS011;1383;48.362;10.908;2022-11-20T08:49:27;3.90;;;2.80;;
2750;SDS011;1383;48.362;10.908;2022-11-20T08:51:54;4.57;;;3.00;;
2750;SDS011;1383;48.362;10.908;2022-11-20T08:54:21;3.23;;;2.93;;
2750;SDS011;1383;48.362;10.908;2022-11-20T08:56:48;4.03;;;3.25;;
2750;SDS011;1383;48.362;10.908;2022-11-20T08:59:15;5.65;;;4.85;;
2750;SDS011;1383;48.362;10.908;2022-11-20T09:02:02;3.57;;;3.27;;
2750;SDS011;1383;48.362;10.908;2022-11-20T09:04:29;2.70;;;2.50;;
2750;SDS011;1383;48.362;10.908;2022-11-20T09:06:55;2.85;;;2.50;;
2750;SDS011;1383;48.362;10.908;2022-11-20T09:09:22;4.30;;;2.70;;
2750;SDS011;1383;48.362;10.908;2022-11-20T09:11:50;4.53;;;2.47;;
2750;SDS011;1383;48.362;10.908;2022-11-20T09:14:17;3.87;;;3.37;;
2750;SDS011;1383;48.362;10.908;2022-11-20T09:16:44;5.13;;;2.73;;
2750;SDS011;1383;48.362;10.908;2022-11-20T09:19:12;3.30;;;3.00;;
2750;SDS011;1383;48.362;10.908;2022-11-20T09:21:59;4.40;;;3.23;;
2750;SDS011;1383;48.362;10.908;2022-11-20T09:24:26;2.80;;;2.60;;
2750;SDS011;1383;48.362;10.908;2022-11-20T09:26:54;2.67;;;2.47;;
2750;SDS011;1383;48.362;10.908;2022-11-20T09:29:20;2.80;;;2.60;;
2750;SDS011;1383;48.362;10.908;2022-11-20T09:31:48;3.53;;;2.90;;
2750;SDS011;1383;48.362;10.908;2022-11-20T09:34:15;3.20;;;2.90;;
2750;SDS011;1383;48.362;10.908;2022-11-20T09:36:42;3.63;;;2.97;;
2750;SDS011;1383;48.362;10.908;2022-11-20T09:39:08;3.73;;;2.37;;
2750;SDS011;1383;48.362;10.908;2022-11-20T09:44:09;2.47;;;2.27;;
2750;SDS011;1383;48.362;10.908;2022-11-20T09:52:49;5.00;;;2.10;;
2750;SDS011;1383;48.362;10.908;2022-11-20T09:55:29;2.33;;;2.10;;
2750;SDS011;1383;48.362;10.908;2022-11-20T09:57:57;3.03;;;2.80;;
2750;SDS011;1383;48.362;10.908;2022-11-20T10:00:25;6.90;;;3.90;;
2750;SDS011;1383;48.362;10.908;2022-11-20T10:03:01;3.60;;;2.90;;
2750;SDS011;1383;48.362;10.908;2022-11-20T10:05:44;4.00;;;2.67;;
2750;SDS011;1383;48.362;10.908;2022-11-20T10:08:16;2.43;;;2.23;;
2750;SDS011;1383;48.362;10.908;2022-11-20T10:13:28;2.20;;;2.00;;
2750;SDS011;1383;48.362;10.908;2022-11-20T10:21:32;2.97;;;1.70;;
2750;SDS011;1383;48.362;10.908;2022-11-20T10:27:20;2.30;;;1.90;;
2750;SDS011;1383;48.362;10.908;2022-11-20T10:30:09;4.03;;;2.33;;
2750;SDS011;1383;48.362;10.908;2022-11-20T10:32:42;2.70;;;1.70;;
2750;SDS011;1383;48.362;10.908;2022-11-20T10:35:20;4.47;;;2.07;;
2750;SDS011;1383;48.362;10.908;2022-11-20T10:38:17;1.80;;;1.70;;
2750;SDS011;1383;48.362;10.908;2022-11-20T10:40:48;2.87;;;2.20;;
2750;SDS011;1383;48.362;10.908;2022-11-20T10:43:21;2.40;;;2.20;;
2750;SDS011;1383;48.362;10.908;2022-11-20T10:46:00;2.97;;;2.10;;
2750;SDS011;1383;48.362;10.908;2022-11-20T10:48:31;3.20;;;1.80;;
2750;SDS011;1383;48.362;10.908;2022-11-20T10:57:07;2.50;;;1.60;;
2750;SDS011;1383;48.362;10.908;2022-11-20T11:02:41;1.63;;;1.30;;
2750;SDS011;1383;48.362;10.908;2022-11-20T11:07:58;1.57;;;1.47;;
2750;SDS011;1383;48.362;10.908;2022-11-20T11:13:02;1.60;;;1.50;;
2750;SDS011;1383;48.362;10.908;2022-11-20T11:15:36;3.70;;;2.07;;
2750;SDS011;1383;48.362;10.908;2022-11-20T11:18:07;2.63;;;1.60;;
2750;SDS011;1383;48.362;10.908;2022-11-20T11:20:35;2.00;;;1.73;;
2750;SDS011;1383;48.362;10.908;2022-11-20T11:23:03;1.70;;;1.60;;
2750;SDS011;1383;48.362;10.908;2022-11-20T11:25:31;2.00;;;1.80;;
2750;SDS011;1383;48.362;10.908;2022-11-20T11:28:17;1.80;;;1.70;;
2750;SDS011;1383;48.362;10.908;2022-11-20T11:30:51;1.63;;;1.53;;
2750;SDS011;1383;48.362;10.908;2022-11-20T11:33:19;2.37;;;2.20;;
2750;SDS011;1383;48.362;10.908;2022-11-20T11:35:47;2.70;;;1.50;;
2750;SDS011;1383;48.362;10.908;2022-11-20T11:38:21;5.40;;;3.80;;
2750;SDS011;1383;48.362;10.908;2022-11-20T11:40:56;2.60;;;2.40;;
2750;SDS011;1383;48.362;10.908;2022-11-20T11:43:25;3.03;;;1.80;;
2750;SDS011;1383;48.362;10.908;2022-11-20T11:46:29;1.47;;;1.37;;
2750;SDS011;1383;48.362;10.908;2022-11-20T11:54:39;2.17;;;1.70;;
2750;SDS011;1383;48.362;10.908;2022-11-20T12:00:03;1.50;;;1.40;;
2750;SDS011;1383;48.362;10.908;2022-11-20T12:02:37;3.10;;;1.90;;
2750;SDS011;1383;48.362;10.908;2022-11-20T12:05:22;2.07;;;1.73;;
2750;SDS011;1383;48.362;10.908;2022-11-20T12:15:44;5.50;;;1.90;;
2750;SDS011;1383;48.362;10.908;2022-11-20T12:18:18;1.57;;;1.47;;
2750;SDS011;1383;48.362;10.908;2022-11-20T12:20:52;2.20;;;1.57;;
2750;SDS011;1383;48.362;10.908;2022-11-20T12:26:31;1.52;;;1.42;;
2750;SDS011;1383;48.362;10.908;2022-11-20T12:40:02;4.97;;;2.70;;
2750;SDS011;1383;48.362;10.908;2022-11-20T13:02:30;2.43;;;1.90;;
2750;SDS011;1383;48.362;10.908;2022-11-20T13:07:53;1.80;;;1.70;;
2750;SDS011;1383;48.362;10.908;2022-11-20T13:10:32;2.40;;;2.20;;
2750;SDS011;1383;48.362;10.908;2022-11-20T13:13:14;2.50;;;2.30;;
2750;SDS011;1383;48.362;10.908;2022-11-20T13:16:02;2.73;;;2.37;;
2750;SDS011;1383;48.362;10.908;2022-11-20T13:18:39;2.60;;;1.67;;
2750;SDS011;1383;48.362;10.908;2022-11-20T13:23:42;2.07;;;1.90;;
2750;SDS011;1383;48.362;10.908;2022-11-20T13:28:47;2.50;;;2.30;;
2750;SDS011;1383;48.362;10.908;2022-11-20T13:33:55;3.30;;;2.83;;
2750;SDS011;1383;48.362;10.908;2022-11-20T13:36:25;3.47;;;3.15;;
2750;SDS011;1383;48.362;10.908;2022-11-20T13:38:54;3.00;;;2.70;;
2750;SDS011;1383;48.362;10.908;2022-11-20T13:41:29;2.22;;;1.95;;
2750;SDS011;1383;48.362;10.908;2022-11-20T13:44:14;3.70;;;2.87;;
2750;SDS011;1383;48.362;10.908;2022-11-20T13:47:04;2.65;;;2.13;;
2750;SDS011;1383;48.362;10.908;2022-11-20T13:49:46;2.23;;;2.03;;
2750;SDS011;1383;48.362;10.908;2022-11-20T14:00:41;4.03;;;3.60;;
2750;SDS011;1383;48.362;10.908;2022-11-20T14:03:29;3.23;;;2.70;;
2750;SDS011;1383;48.362;10.908;2022-11-20T14:06:26;6.13;;;2.20;;
2750;SDS011;1383;48.362;10.908;2022-11-20T14:08:58;2.70;;;2.27;;
2750;SDS011;1383;48.362;10.908;2022-11-20T14:11:26;2.58;;;2.10;;
2750;SDS011;1383;48.362;10.908;2022-11-20T14:13:59;2.53;;;1.77;;
2750;SDS011;1383;48.362;10.908;2022-11-20T14:16:47;1.70;;;1.60;;
2750;SDS011;1383;48.362;10.908;2022-11-20T14:21:46;2.00;;;1.90;;
2750;SDS011;1383;48.362;10.908;2022-11-20T14:24:14;2.42;;;2.17;;
2750;SDS011;1383;48.362;10.908;2022-11-20T14:26:46;2.10;;;1.80;;
2750;SDS011;1383;48.362;10.908;2022-11-20T14:29:14;2.50;;;2.03;;
2750;SDS011;1383;48.362;10.908;2022-11-20T14:31:46;1.83;;;1.73;;
2750;SDS011;1383;48.362;10.908;2022-11-20T14:34:26;2.30;;;1.80;;
2750;SDS011;1383;48.362;10.908;2022-11-20T14:37:02;4.17;;;2.30;;
2750;SDS011;1383;48.362;10.908;2022-11-20T14:39:34;5.70;;;2.50;;
2750;SDS011;1383;48.362;10.908;2022-11-20T14:42:13;2.10;;;1.75;;
2750;SDS011;1383;48.362;10.908;2022-11-20T14:44:45;4.35;;;2.20;;
2750;SDS011;1383;48.362;10.908;2022-11-20T14:47:14;2.50;;;1.80;;
2750;SDS011;1383;48.362;10.908;2022-11-20T14:49:45;1.93;;;1.70;;
2750;SDS011;1383;48.362;10.908;2022-11-20T14:52:14;3.20;;;1.57;;
2750;SDS011;1383;48.362;10.908;2022-11-20T14:54:46;1.90;;;1.70;;
2750;SDS011;1383;48.362;10.908;2022-11-20T14:57:22;2.87;;;2.27;;
2750;SDS011;1383;48.362;10.908;2022-11-20T15:02:42;2.03;;;1.60;;
2750;SDS011;1383;48.362;10.908;2022-11-20T15:05:14;4.40;;;2.83;;
2750;SDS011;1383;48.362;10.908;2022-11-20T15:07:43;4.30;;;2.60;;
2750;SDS011;1383;48.362;10.908;2022-11-20T15:10:25;2.00;;;1.80;;
2750;SDS011;1383;48.362;10.908;2022-11-20T15:13:00;2.33;;;2.07;;
2750;SDS011;1383;48.362;10.908;2022-11-20T15:18:13;4.80;;;3.58;;
2750;SDS011;1383;48.362;10.908;2022-11-20T15:20:46;7.50;;;5.17;;
2750;SDS011;1383;48.362;10.908;2022-11-20T15:23:16;2.33;;;2.05;;
2750;SDS011;1383;48.362;10.908;2022-11-20T15:25:45;5.75;;;1.70;;
2750;SDS011;1383;48.362;10.908;2022-11-20T15:30:45;1.63;;;1.37;;
2750;SDS011;1383;48.362;10.908;2022-11-20T15:33:13;2.40;;;1.93;;
2750;SDS011;1383;48.362;10.908;2022-11-20T15:35:40;2.45;;;1.38;;
2750;SDS011;1383;48.362;10.908;2022-11-20T15:38:07;1.58;;;1.35;;
2750;SDS011;1383;48.362;10.908;2022-11-20T15:40:35;2.60;;;1.50;;
2750;SDS011;1383;48.362;10.908;2022-11-20T15:43:02;1.48;;;1.20;;
2750;SDS011;1383;48.362;10.908;2022-11-20T15:48:12;1.98;;;1.50;;
2750;SDS011;1383;48.362;10.908;2022-11-20T15:51:02;3.85;;;2.28;;
2750;SDS011;1383;48.362;10.908;2022-11-20T15:53:36;1.87;;;1.70;;
2750;SDS011;1383;48.362;10.908;2022-11-20T15:56:03;4.43;;;1.42;;
2750;SDS011;1383;48.362;10.908;2022-11-20T15:58:30;1.70;;;1.60;;
2750;SDS011;1383;48.362;10.908;2022-11-20T16:00:57;2.33;;;2.10;;
2750;SDS011;1383;48.362;10.908;2022-11-20T16:03:24;3.13;;;2.80;;
2750;SDS011;1383;48.362;10.908;2022-11-20T16:05:51;2.10;;;1.87;;
2750;SDS011;1383;48.362;10.908;2022-11-20T16:08:19;3.13;;;2.33;;
2750;SDS011;1383;48.362;10.908;2022-11-20T16:10:46;2.70;;;2.50;;
2750;SDS011;1383;48.362;10.908;2022-11-20T16:13:14;2.47;;;2.28;;
2750;SDS011;1383;48.362;10.908;2022-11-20T16:16:05;2.25;;;1.92;;
2750;SDS011;1383;48.362;10.908;2022-11-20T16:18:36;1.60;;;1.50;;
2750;SDS011;1383;48.362;10.908;2022-11-20T16:21:02;2.93;;;1.87;;
2750;SDS011;1383;48.362;10.908;2022-11-20T16:23:29;1.87;;;1.60;;
2750;SDS011;1383;48.362;10.908;2022-11-20T16:25:56;2.10;;;1.73;;
2750;SDS011;1383;48.362;10.908;2022-11-20T16:28:23;2.90;;;1.98;;
2750;SDS011;1383;48.362;10.908;2022-11-20T16:30:50;5.05;;;3.78;;
2750;SDS011;1383;48.362;10.908;2022-11-20T16:33:17;5.32;;;3.35;;
2750;SDS011;1383;48.362;10.908;2022-11-20T16:35:43;5.05;;;4.10;;
2750;SDS011;1383;48.362;10.908;2022-11-20T16:38:10;3.03;;;2.73;;
2750;SDS011;1383;48.362;10.908;2022-11-20T16:40:37;4.30;;;2.00;;
2750;SDS011;1383;48.362;10.908;2022-11-20T16:43:10;2.33;;;2.03;;
2750;SDS011;1383;48.362;10.908;2022-11-20T16:45:43;2.00;;;1.70;;
2750;SDS011;1383;48.362;10.908;2022-11-20T16:48:14;2.15;;;1.80;;
2750;SDS011;1383;48.362;10.908;2022-11-20T16:50:46;2.10;;;1.70;;
2750;SDS011;1383;48.362;10.908;2022-11-20T16:53:13;1.40;;;1.30;;
2750;SDS011;1383;48.362;10.908;2022-11-20T16:55:40;1.70;;;1.27;;
2750;SDS011;1383;48.362;10.908;2022-11-20T16:58:07;2.40;;;1.10;;
2750;SDS011;1383;48.362;10.908;2022-11-20T17:00:37;2.28;;;1.75;;
2750;SDS011;1383;48.362;10.908;2022-11-20T17:03:05;2.38;;;1.60;;
2750;SDS011;1383;48.362;10.908;2022-11-20T17:05:32;2.55;;;1.80;;
2750;SDS011;1383;48.362;10.908;2022-11-20T17:08:00;2.50;;;2.30;;
2750;SDS011;1383;48.362;10.908;2022-11-20T17:10:27;2.63;;;2.42;;
2750;SDS011;1383;48.362;10.908;2022-11-20T17:12:54;3.60;;;2.20;;
2750;SDS011;1383;48.362;10.908;2022-11-20T17:15:21;3.43;;;3.20;;
2750;SDS011;1383;48.362;10.908;2022-11-20T17:17:48;2.70;;;2.50;;
2750;SDS011;1383;48.362;10.908;2022-11-20T17:20:14;3.95;;;2.65;;
2750;SDS011;1383;48.362;10.908;2022-11-20T17:22:41;3.13;;;2.85;;
2750;SDS011;1383;48.362;10.908;2022-11-20T17:25:08;3.65;;;3.03;;
2750;SDS011;1383;48.362;10.908;2022-11-20T17:27:35;4.45;;;2.88;;
2750;SDS011;1383;48.362;10.908;2022-11-20T17:30:01;4.18;;;2.90;;